Edwardsville, New York
Current Conditions -  °F | °C
As of 10:58 PM on Sunday 23 Nov 2014 (Local Time) from KGTB Reporting Station
Clear Clear  
Wind Chill: 38°   Ceiling: Unl
Heat Index: 45°   Visibility: 10mi
Dew Point: 35°   Wind: 16mph
Humidity: 68%   Direction: 150°SSE
Pressure: 29.82"   Gusts: NA
Location:  44.435°N, 75.6656°W
Report Text: KGTB 240358Z AUTO 15014KT 10SM CLR 07/02 A2982 RMK AO2 SLP102 T00720016
Loading
Personal Weather Stations






























Interactive Weather Map New forecast layout! Learn more

10-Day Weather Forecast

Advertisements
Track Severe Weather on mobile